sensor_id;sensor_type;location;lat;lon;timestamp;pressure;altitude;pressure_sealevel;temperature;humidity
75290;BME280;63883;48.996;20.804;2023-04-05T00:00:28;96788.03;;;-1.35;63.33
75290;BME280;63883;48.996;20.804;2023-04-05T00:03:11;96791.50;;;-1.30;62.57
75290;BME280;63883;48.996;20.804;2023-04-05T00:05:37;96785.47;;;-1.38;62.53
75290;BME280;63883;48.996;20.804;2023-04-05T00:08:04;96789.63;;;-1.37;62.99
75290;BME280;63883;48.996;20.804;2023-04-05T00:10:32;96778.72;;;-1.40;63.33
75290;BME280;63883;48.996;20.804;2023-04-05T00:12:59;96777.88;;;-1.41;62.74
75290;BME280;63883;48.996;20.804;2023-04-05T00:15:26;96775.50;;;-1.35;62.17
75290;BME280;63883;48.996;20.804;2023-04-05T00:17:52;96762.19;;;-1.34;62.58
75290;BME280;63883;48.996;20.804;2023-04-05T00:20:21;96771.38;;;-1.34;62.31
75290;BME280;63883;48.996;20.804;2023-04-05T00:22:47;96776.31;;;-1.36;61.68
75290;BME280;63883;48.996;20.804;2023-04-05T00:25:15;96771.31;;;-1.37;61.46
75290;BME280;63883;48.996;20.804;2023-04-05T00:27:44;96768.66;;;-1.43;61.42
75290;BME280;63883;48.996;20.804;2023-04-05T00:30:11;96769.41;;;-1.47;61.06
75290;BME280;63883;48.996;20.804;2023-04-05T00:32:37;96762.88;;;-1.41;61.26
75290;BME280;63883;48.996;20.804;2023-04-05T00:35:02;96767.13;;;-1.37;60.85
75290;BME280;63883;48.996;20.804;2023-04-05T00:37:28;96767.88;;;-1.41;60.38
75290;BME280;63883;48.996;20.804;2023-04-05T00:39:54;96765.41;;;-1.39;60.79
75290;BME280;63883;48.996;20.804;2023-04-05T00:42:22;96758.50;;;-1.49;60.89
75290;BME280;63883;48.996;20.804;2023-04-05T00:44:48;96756.06;;;-1.48;61.45
75290;BME280;63883;48.996;20.804;2023-04-05T00:47:13;96765.22;;;-1.48;61.38
75290;BME280;63883;48.996;20.804;2023-04-05T00:49:39;96745.00;;;-1.59;61.79
75290;BME280;63883;48.996;20.804;2023-04-05T00:52:05;96759.88;;;-1.64;61.51
75290;BME280;63883;48.996;20.804;2023-04-05T00:54:31;96747.91;;;-1.77;61.17
75290;BME280;63883;48.996;20.804;2023-04-05T00:56:58;96751.22;;;-1.78;61.07
75290;BME280;63883;48.996;20.804;2023-04-05T00:59:27;96746.97;;;-1.82;61.81
75290;BME280;63883;48.996;20.804;2023-04-05T01:02:22;96754.34;;;-1.86;61.38
75290;BME280;63883;48.996;20.804;2023-04-05T01:04:54;96746.00;;;-1.87;61.99
75290;BME280;63883;48.996;20.804;2023-04-05T01:07:37;96751.91;;;-1.83;62.41
75290;BME280;63883;48.996;20.804;2023-04-05T01:10:09;96745.31;;;-1.80;61.90
75290;BME280;63883;48.996;20.804;2023-04-05T01:12:36;96745.97;;;-1.88;61.30
75290;BME280;63883;48.996;20.804;2023-04-05T01:15:02;96737.06;;;-1.77;61.19
75290;BME280;63883;48.996;20.804;2023-04-05T01:17:29;96739.50;;;-1.80;61.33
75290;BME280;63883;48.996;20.804;2023-04-05T01:20:03;96734.38;;;-1.85;61.35
75290;BME280;63883;48.996;20.804;2023-04-05T01:31:07;96741.69;;;-1.92;61.47
75290;BME280;63883;48.996;20.804;2023-04-05T01:33:54;96744.25;;;-1.91;62.17
75290;BME280;63883;48.996;20.804;2023-04-05T01:36:32;96745.72;;;-1.99;62.67
75290;BME280;63883;48.996;20.804;2023-04-05T01:39:03;96744.91;;;-1.98;63.02
75290;BME280;63883;48.996;20.804;2023-04-05T01:41:29;96747.28;;;-2.04;63.06
75290;BME280;63883;48.996;20.804;2023-04-05T01:43:55;96746.38;;;-2.06;61.33
75290;BME280;63883;48.996;20.804;2023-04-05T01:46:21;96735.59;;;-2.05;63.14
75290;BME280;63883;48.996;20.804;2023-04-05T01:48:47;96739.78;;;-2.04;63.56
75290;BME280;63883;48.996;20.804;2023-04-05T01:51:12;96734.69;;;-2.07;63.52
75290;BME280;63883;48.996;20.804;2023-04-05T01:53:39;96738.81;;;-2.09;63.82
75290;BME280;63883;48.996;20.804;2023-04-05T01:56:05;96740.44;;;-2.11;62.89
75290;BME280;63883;48.996;20.804;2023-04-05T01:58:30;96737.19;;;-2.07;63.51
75290;BME280;63883;48.996;20.804;2023-04-05T02:00:56;96732.97;;;-2.10;63.40
75290;BME280;63883;48.996;20.804;2023-04-05T02:03:23;96739.59;;;-2.12;63.54
75290;BME280;63883;48.996;20.804;2023-04-05T02:05:49;96743.03;;;-2.07;63.52
75290;BME280;63883;48.996;20.804;2023-04-05T02:08:15;96734.09;;;-1.97;62.75
75290;BME280;63883;48.996;20.804;2023-04-05T02:10:40;96736.47;;;-2.03;63.16
75290;BME280;63883;48.996;20.804;2023-04-05T02:13:07;96736.38;;;-2.06;62.71
75290;BME280;63883;48.996;20.804;2023-04-05T02:15:32;96734.69;;;-2.07;62.82
75290;BME280;63883;48.996;20.804;2023-04-05T02:17:59;96730.44;;;-2.11;63.17
75290;BME280;63883;48.996;20.804;2023-04-05T02:20:28;96732.75;;;-2.19;63.44
75290;BME280;63883;48.996;20.804;2023-04-05T02:22:55;96749.44;;;-2.18;63.60
75290;BME280;63883;48.996;20.804;2023-04-05T02:25:21;96738.50;;;-2.21;63.44
75290;BME280;63883;48.996;20.804;2023-04-05T02:27:47;96730.91;;;-2.26;63.78
75290;BME280;63883;48.996;20.804;2023-04-05T02:30:12;96739.16;;;-2.28;64.22
75290;BME280;63883;48.996;20.804;2023-04-05T02:32:39;96734.06;;;-2.33;63.90
75290;BME280;63883;48.996;20.804;2023-04-05T02:35:10;96733.91;;;-2.39;64.01
75290;BME280;63883;48.996;20.804;2023-04-05T02:37:37;96731.44;;;-2.39;64.18
75290;BME280;63883;48.996;20.804;2023-04-05T02:40:06;96724.69;;;-2.42;64.00
75290;BME280;63883;48.996;20.804;2023-04-05T02:42:34;96723.75;;;-2.47;63.51
75290;BME280;63883;48.996;20.804;2023-04-05T02:45:00;96726.16;;;-2.50;64.77
75290;BME280;63883;48.996;20.804;2023-04-05T02:47:27;96727.69;;;-2.55;64.32
75290;BME280;63883;48.996;20.804;2023-04-05T02:49:52;96724.16;;;-2.63;64.41
75290;BME280;63883;48.996;20.804;2023-04-05T02:52:18;96725.66;;;-2.69;64.96
75290;BME280;63883;48.996;20.804;2023-04-05T02:54:44;96723.84;;;-2.73;64.58
75290;BME280;63883;48.996;20.804;2023-04-05T02:57:12;96721.22;;;-2.80;65.11
75290;BME280;63883;48.996;20.804;2023-04-05T02:59:38;96719.41;;;-2.85;65.32
75290;BME280;63883;48.996;20.804;2023-04-05T03:02:05;96708.88;;;-2.75;64.69
75290;BME280;63883;48.996;20.804;2023-04-05T03:04:31;96718.06;;;-2.72;64.23
75290;BME280;63883;48.996;20.804;2023-04-05T03:07:02;96725.97;;;-2.89;64.90
75290;BME280;63883;48.996;20.804;2023-04-05T03:09:29;96726.81;;;-2.88;64.78
75290;BME280;63883;48.996;20.804;2023-04-05T03:12:02;96732.84;;;-2.80;64.66
75290;BME280;63883;48.996;20.804;2023-04-05T03:14:29;96718.59;;;-2.84;64.96
75290;BME280;63883;48.996;20.804;2023-04-05T03:16:55;96735.13;;;-2.88;65.34
75290;BME280;63883;48.996;20.804;2023-04-05T03:19:21;96723.34;;;-2.93;65.71
75290;BME280;63883;48.996;20.804;2023-04-05T03:21:48;96727.44;;;-2.95;65.53
75290;BME280;63883;48.996;20.804;2023-04-05T03:24:15;96725.97;;;-2.89;65.64
75290;BME280;63883;48.996;20.804;2023-04-05T03:26:45;96726.78;;;-2.90;65.04
75290;BME280;63883;48.996;20.804;2023-04-05T03:29:11;96728.59;;;-2.84;64.16
75290;BME280;63883;48.996;20.804;2023-04-05T03:31:37;96725.56;;;-2.72;64.00
75290;BME280;63883;48.996;20.804;2023-04-05T03:34:03;96729.53;;;-2.79;64.32
75290;BME280;63883;48.996;20.804;2023-04-05T03:36:29;96727.72;;;-2.85;64.38
75290;BME280;63883;48.996;20.804;2023-04-05T03:39:14;96732.88;;;-2.79;64.41
75290;BME280;63883;48.996;20.804;2023-04-05T03:41:40;96730.44;;;-2.77;63.88
75290;BME280;63883;48.996;20.804;2023-04-05T03:44:07;96734.56;;;-2.78;64.18
75290;BME280;63883;48.996;20.804;2023-04-05T03:46:33;96733.66;;;-2.81;64.13
75290;BME280;63883;48.996;20.804;2023-04-05T03:49:01;96736.97;;;-2.82;63.86
75290;BME280;63883;48.996;20.804;2023-04-05T03:51:27;96732.81;;;-2.82;63.76
75290;BME280;63883;48.996;20.804;2023-04-05T03:53:52;96733.56;;;-2.84;63.88
75290;BME280;63883;48.996;20.804;2023-04-05T03:56:18;96740.47;;;-2.76;63.81
75290;BME280;63883;48.996;20.804;2023-04-05T03:58:45;96736.34;;;-2.73;63.77
75290;BME280;63883;48.996;20.804;2023-04-05T04:01:11;96747.00;;;-2.79;63.32
75290;BME280;63883;48.996;20.804;2023-04-05T04:03:37;96742.13;;;-2.76;63.20
75290;BME280;63883;48.996;20.804;2023-04-05T04:06:04;96738.66;;;-2.80;63.47
75290;BME280;63883;48.996;20.804;2023-04-05T04:08:30;96733.66;;;-2.81;64.03
75290;BME280;63883;48.996;20.804;2023-04-05T04:10:56;96743.81;;;-2.73;62.80
75290;BME280;63883;48.996;20.804;2023-04-05T04:13:22;96740.63;;;-2.69;61.65
75290;BME280;63883;48.996;20.804;2023-04-05T04:15:47;96748.94;;;-2.69;62.66
75290;BME280;63883;48.996;20.804;2023-04-05T04:18:13;96759.63;;;-2.73;63.44
75290;BME280;63883;48.996;20.804;2023-04-05T04:20:39;96745.38;;;-2.79;63.43
75290;BME280;63883;48.996;20.804;2023-04-05T04:23:05;96753.16;;;-2.66;62.22
75290;BME280;63883;48.996;20.804;2023-04-05T04:25:35;96757.34;;;-2.65;61.12
75290;BME280;63883;48.996;20.804;2023-04-05T04:28:03;96760.03;;;-2.59;61.77
75290;BME280;63883;48.996;20.804;2023-04-05T04:30:31;96763.16;;;-2.66;62.71
75290;BME280;63883;48.996;20.804;2023-04-05T04:33:00;96765.63;;;-2.66;62.29
75290;BME280;63883;48.996;20.804;2023-04-05T04:35:29;96759.94;;;-2.62;61.47
75290;BME280;63883;48.996;20.804;2023-04-05T04:38:03;96769.22;;;-2.57;61.00
75290;BME280;63883;48.996;20.804;2023-04-05T04:43:08;96770.25;;;-2.50;62.25
75290;BME280;63883;48.996;20.804;2023-04-05T04:45:39;96764.44;;;-2.49;63.03
75290;BME280;63883;48.996;20.804;2023-04-05T04:48:05;96753.81;;;-2.42;62.07
75290;BME280;63883;48.996;20.804;2023-04-05T04:50:31;96757.31;;;-2.36;61.99
75290;BME280;63883;48.996;20.804;2023-04-05T04:53:00;96759.50;;;-2.48;61.08
75290;BME280;63883;48.996;20.804;2023-04-05T04:55:29;96757.81;;;-2.49;61.00
75290;BME280;63883;48.996;20.804;2023-04-05T04:57:58;96756.25;;;-2.44;61.43
75290;BME280;63883;48.996;20.804;2023-04-05T05:00:24;96757.25;;;-2.37;62.03
75290;BME280;63883;48.996;20.804;2023-04-05T05:02:51;96756.75;;;-2.25;60.95
75290;BME280;63883;48.996;20.804;2023-04-05T05:05:17;96753.44;;;-2.23;61.33
75290;BME280;63883;48.996;20.804;2023-04-05T05:07:47;96754.38;;;-2.19;61.46
75290;BME280;63883;48.996;20.804;2023-04-05T05:10:13;96755.22;;;-2.19;61.38
75290;BME280;63883;48.996;20.804;2023-04-05T05:12:43;96758.63;;;-2.15;60.38
75290;BME280;63883;48.996;20.804;2023-04-05T05:15:09;96754.69;;;-2.07;60.91
75290;BME280;63883;48.996;20.804;2023-04-05T05:17:35;96748.97;;;-2.02;61.50
75290;BME280;63883;48.996;20.804;2023-04-05T05:20:02;96754.84;;;-2.00;60.62
75290;BME280;63883;48.996;20.804;2023-04-05T05:22:34;96753.81;;;-2.09;59.94
75290;BME280;63883;48.996;20.804;2023-04-05T05:25:01;96722.25;;;-2.06;60.85
75290;BME280;63883;48.996;20.804;2023-04-05T05:27:26;96755.44;;;-2.11;60.45
75290;BME280;63883;48.996;20.804;2023-04-05T05:29:52;96755.47;;;-2.08;60.48
75290;BME280;63883;48.996;20.804;2023-04-05T05:32:18;96751.31;;;-2.08;60.43
75290;BME280;63883;48.996;20.804;2023-04-05T05:34:44;96759.63;;;-2.10;60.80
75290;BME280;63883;48.996;20.804;2023-04-05T05:37:10;96759.72;;;-2.06;61.36
75290;BME280;63883;48.996;20.804;2023-04-05T05:39:41;96748.22;;;-1.99;61.32
75290;BME280;63883;48.996;20.804;2023-04-05T05:42:07;96757.41;;;-1.98;60.35
75290;BME280;63883;48.996;20.804;2023-04-05T05:44:33;96763.25;;;-1.98;60.76
75290;BME280;63883;48.996;20.804;2023-04-05T05:46:58;96762.69;;;-1.86;60.62
75290;BME280;63883;48.996;20.804;2023-04-05T05:49:24;96761.13;;;-1.82;59.36
75290;BME280;63883;48.996;20.804;2023-04-05T05:51:50;96763.66;;;-1.81;60.12
75290;BME280;63883;48.996;20.804;2023-04-05T05:54:17;96759.59;;;-1.76;59.63
75290;BME280;63883;48.996;20.804;2023-04-05T05:56:43;96761.22;;;-1.78;59.37
75290;BME280;63883;48.996;20.804;2023-04-05T05:59:09;96758.88;;;-1.70;59.87
75290;BME280;63883;48.996;20.804;2023-04-05T06:01:34;96758.13;;;-1.68;59.60
75290;BME280;63883;48.996;20.804;2023-04-05T06:04:08;96751.66;;;-1.60;59.19
75290;BME280;63883;48.996;20.804;2023-04-05T06:06:33;96760.75;;;-1.62;58.66
75290;BME280;63883;48.996;20.804;2023-04-05T06:09:00;96762.41;;;-1.62;58.68
75290;BME280;63883;48.996;20.804;2023-04-05T06:11:25;96761.00;;;-1.49;57.90
75290;BME280;63883;48.996;20.804;2023-04-05T06:13:51;96769.41;;;-1.47;57.66
75290;BME280;63883;48.996;20.804;2023-04-05T06:16:20;96764.50;;;-1.43;57.76
75290;BME280;63883;48.996;20.804;2023-04-05T06:18:46;96754.94;;;-1.23;57.68
75290;BME280;63883;48.996;20.804;2023-04-05T06:21:12;96759.31;;;-1.13;56.39
75290;BME280;63883;48.996;20.804;2023-04-05T06:23:40;96762.63;;;-1.14;55.94
75290;BME280;63883;48.996;20.804;2023-04-05T06:26:07;96759.31;;;-1.13;55.61
75290;BME280;63883;48.996;20.804;2023-04-05T06:28:33;96756.22;;;-1.01;56.72
75290;BME280;63883;48.996;20.804;2023-04-05T06:30:59;96763.75;;;-1.00;55.17
75290;BME280;63883;48.996;20.804;2023-04-05T06:33:25;96763.81;;;-0.97;55.28
75290;BME280;63883;48.996;20.804;2023-04-05T06:35:51;96751.53;;;-0.85;54.95
75290;BME280;63883;48.996;20.804;2023-04-05T06:38:17;96746.97;;;-0.62;54.86
75290;BME280;63883;48.996;20.804;2023-04-05T06:40:43;96759.59;;;-0.56;55.74
75290;BME280;63883;48.996;20.804;2023-04-05T06:43:09;96755.53;;;-0.49;53.81
75290;BME280;63883;48.996;20.804;2023-04-05T06:45:37;96761.50;;;-0.44;52.46
75290;BME280;63883;48.996;20.804;2023-04-05T06:48:03;96761.81;;;-0.26;53.79
75290;BME280;63883;48.996;20.804;2023-04-05T06:50:28;96765.00;;;-0.34;52.09
75290;BME280;63883;48.996;20.804;2023-04-05T06:52:55;96765.56;;;-0.49;52.13
75290;BME280;63883;48.996;20.804;2023-04-05T06:55:20;96759.81;;;-0.45;52.11
75290;BME280;63883;48.996;20.804;2023-04-05T06:57:46;96770.75;;;-0.40;52.63
75290;BME280;63883;48.996;20.804;2023-04-05T07:00:13;96757.63;;;-0.27;52.54
75290;BME280;63883;48.996;20.804;2023-04-05T07:02:40;96759.75;;;0.02;51.90
75290;BME280;63883;48.996;20.804;2023-04-05T07:05:06;96750.81;;;0.14;51.17
75290;BME280;63883;48.996;20.804;2023-04-05T07:07:37;96758.56;;;0.31;51.46
75290;BME280;63883;48.996;20.804;2023-04-05T07:10:04;96758.50;;;0.26;51.33
75290;BME280;63883;48.996;20.804;2023-04-05T07:12:30;96758.16;;;0.61;51.73
75290;BME280;63883;48.996;20.804;2023-04-05T07:14:58;96761.72;;;0.75;50.88
75290;BME280;63883;48.996;20.804;2023-04-05T07:17:24;96760.06;;;0.77;50.68
75290;BME280;63883;48.996;20.804;2023-04-05T07:19:50;96750.81;;;0.74;50.04
75290;BME280;63883;48.996;20.804;2023-04-05T07:22:16;96753.91;;;0.55;50.68
75290;BME280;63883;48.996;20.804;2023-04-05T07:24:44;96762.50;;;0.72;50.48
75290;BME280;63883;48.996;20.804;2023-04-05T07:27:10;96757.81;;;0.97;50.93
75290;BME280;63883;48.996;20.804;2023-04-05T07:29:36;96762.88;;;1.00;50.05
75290;BME280;63883;48.996;20.804;2023-04-05T07:32:06;96760.53;;;1.13;50.51
75290;BME280;63883;48.996;20.804;2023-04-05T07:34:33;96754.53;;;1.02;49.71
75290;BME280;63883;48.996;20.804;2023-04-05T07:36:58;96760.84;;;1.39;50.46
75290;BME280;63883;48.996;20.804;2023-04-05T07:39:24;96757.56;;;1.43;47.89
75290;BME280;63883;48.996;20.804;2023-04-05T07:41:50;96769.78;;;1.16;48.76
75290;BME280;63883;48.996;20.804;2023-04-05T07:44:16;96764.66;;;1.10;49.23
75290;BME280;63883;48.996;20.804;2023-04-05T07:46:41;96759.16;;;1.37;48.99
75290;BME280;63883;48.996;20.804;2023-04-05T07:49:10;96762.47;;;1.34;48.23
75290;BME280;63883;48.996;20.804;2023-04-05T07:51:36;96752.81;;;1.71;49.51
75290;BME280;63883;48.996;20.804;2023-04-05T07:54:06;96763.63;;;1.64;49.03
75290;BME280;63883;48.996;20.804;2023-04-05T07:56:32;96758.44;;;1.48;49.16
75290;BME280;63883;48.996;20.804;2023-04-05T07:58:57;96759.38;;;1.56;49.07
75290;BME280;63883;48.996;20.804;2023-04-05T08:01:23;96759.81;;;1.24;48.68
75290;BME280;63883;48.996;20.804;2023-04-05T08:03:53;96774.94;;;1.27;49.91
75290;BME280;63883;48.996;20.804;2023-04-05T08:06:19;96749.78;;;1.25;49.16
75290;BME280;63883;48.996;20.804;2023-04-05T08:08:45;96753.84;;;1.14;49.90
75290;BME280;63883;48.996;20.804;2023-04-05T08:11:11;96758.25;;;1.32;49.74
75290;BME280;63883;48.996;20.804;2023-04-05T08:13:37;96762.53;;;1.40;49.27
75290;BME280;63883;48.996;20.804;2023-04-05T08:16:07;96751.94;;;1.66;48.83
75290;BME280;63883;48.996;20.804;2023-04-05T08:18:32;96760.25;;;1.62;48.55
75290;BME280;63883;48.996;20.804;2023-04-05T08:20:59;96755.56;;;1.98;48.10
75290;BME280;63883;48.996;20.804;2023-04-05T08:23:25;96754.84;;;2.13;47.94
75290;BME280;63883;48.996;20.804;2023-04-05T08:25:52;96756.03;;;2.60;47.89
75290;BME280;63883;48.996;20.804;2023-04-05T08:28:17;96753.50;;;2.56;46.92
75290;BME280;63883;48.996;20.804;2023-04-05T08:30:43;96750.13;;;2.54;47.15
75290;BME280;63883;48.996;20.804;2023-04-05T08:33:10;96751.94;;;2.73;46.38
75290;BME280;63883;48.996;20.804;2023-04-05T08:35:36;96746.94;;;2.79;46.29
75290;BME280;63883;48.996;20.804;2023-04-05T08:38:03;96741.91;;;2.88;44.86
75290;BME280;63883;48.996;20.804;2023-04-05T08:40:38;96741.16;;;3.01;44.62
75290;BME280;63883;48.996;20.804;2023-04-05T08:43:31;96741.91;;;2.79;44.33
75290;BME280;63883;48.996;20.804;2023-04-05T08:45:59;96740.31;;;2.98;45.51
75290;BME280;63883;48.996;20.804;2023-04-05T08:48:26;96744.53;;;3.03;46.11
75290;BME280;63883;48.996;20.804;2023-04-05T08:50:55;96746.34;;;3.36;45.49
75290;BME280;63883;48.996;20.804;2023-04-05T08:53:21;96733.72;;;3.32;44.95
75290;BME280;63883;48.996;20.804;2023-04-05T08:55:54;96741.31;;;3.42;45.15
75290;BME280;63883;48.996;20.804;2023-04-05T08:58:21;96742.13;;;3.35;45.43
75290;BME280;63883;48.996;20.804;2023-04-05T09:00:50;96737.94;;;3.36;43.97
75290;BME280;63883;48.996;20.804;2023-04-05T09:03:21;96722.91;;;3.66;44.74
75290;BME280;63883;48.996;20.804;2023-04-05T09:05:49;96743.09;;;3.80;45.06
75290;BME280;63883;48.996;20.804;2023-04-05T09:08:16;96742.28;;;4.36;44.34
75290;BME280;63883;48.996;20.804;2023-04-05T09:10:43;96753.16;;;4.76;42.07
75290;BME280;63883;48.996;20.804;2023-04-05T09:13:09;96747.28;;;4.77;41.77
75290;BME280;63883;48.996;20.804;2023-04-05T09:15:38;96738.59;;;5.52;40.05
75290;BME280;63883;48.996;20.804;2023-04-05T09:18:04;96745.50;;;5.12;40.02
75290;BME280;63883;48.996;20.804;2023-04-05T09:20:30;96745.22;;;5.71;40.47
75290;BME280;63883;48.996;20.804;2023-04-05T09:22:56;96732.63;;;5.64;37.21
75290;BME280;63883;48.996;20.804;2023-04-05T09:28:00;96737.53;;;5.94;39.08
75290;BME280;63883;48.996;20.804;2023-04-05T09:30:28;96735.03;;;5.90;38.13
75290;BME280;63883;48.996;20.804;2023-04-05T09:32:55;96741.69;;;6.97;37.29
75290;BME280;63883;48.996;20.804;2023-04-05T09:35:23;96729.94;;;7.62;35.72
75290;BME280;63883;48.996;20.804;2023-04-05T09:37:55;96738.84;;;6.42;36.36
75290;BME280;63883;48.996;20.804;2023-04-05T09:40:22;96745.09;;;6.95;36.71
75290;BME280;63883;48.996;20.804;2023-04-05T09:42:48;96723.13;;;6.95;34.82
75290;BME280;63883;48.996;20.804;2023-04-05T09:45:16;96728.81;;;7.81;36.21
75290;BME280;63883;48.996;20.804;2023-04-05T09:47:53;96729.38;;;7.39;33.84
75290;BME280;63883;48.996;20.804;2023-04-05T09:50:19;96729.09;;;8.20;34.66
75290;BME280;63883;48.996;20.804;2023-04-05T09:52:45;96728.81;;;7.80;34.84
75290;BME280;63883;48.996;20.804;2023-04-05T09:55:11;96722.06;;;8.36;32.22
75290;BME280;63883;48.996;20.804;2023-04-05T09:57:39;96725.75;;;8.16;33.67
75290;BME280;63883;48.996;20.804;2023-04-05T10:00:16;96723.91;;;7.68;32.87
75290;BME280;63883;48.996;20.804;2023-04-05T10:02:42;96738.63;;;7.43;34.41
75290;BME280;63883;48.996;20.804;2023-04-05T10:05:09;96721.59;;;7.50;33.28
75290;BME280;63883;48.996;20.804;2023-04-05T10:07:43;96710.00;;;7.33;34.10
75290;BME280;63883;48.996;20.804;2023-04-05T10:10:10;96711.44;;;7.51;33.97
75290;BME280;63883;48.996;20.804;2023-04-05T10:12:38;96709.75;;;6.81;34.13
75290;BME280;63883;48.996;20.804;2023-04-05T10:15:07;96717.78;;;7.20;35.14
75290;BME280;63883;48.996;20.804;2023-04-05T10:17:50;96721.09;;;8.44;33.77
75290;BME280;63883;48.996;20.804;2023-04-05T10:20:19;96712.19;;;9.56;32.29
75290;BME280;63883;48.996;20.804;2023-04-05T10:25:32;96713.34;;;10.18;30.12
75290;BME280;63883;48.996;20.804;2023-04-05T10:28:04;96722.44;;;9.11;31.09
75290;BME280;63883;48.996;20.804;2023-04-05T10:30:50;96715.25;;;8.38;30.95
75290;BME280;63883;48.996;20.804;2023-04-05T10:33:27;96708.81;;;8.68;30.39
75290;BME280;63883;48.996;20.804;2023-04-05T10:36:04;96712.44;;;8.56;31.15
75290;BME280;63883;48.996;20.804;2023-04-05T10:41:48;96691.69;;;9.62;29.83
75290;BME280;63883;48.996;20.804;2023-04-05T10:44:17;96695.28;;;9.52;30.74
75290;BME280;63883;48.996;20.804;2023-04-05T10:46:44;96696.69;;;10.39;30.23
75290;BME280;63883;48.996;20.804;2023-04-05T10:49:21;96701.09;;;9.95;29.72
75290;BME280;63883;48.996;20.804;2023-04-05T10:51:54;96692.91;;;10.21;28.38
75290;BME280;63883;48.996;20.804;2023-04-05T10:54:21;96699.34;;;10.68;29.86
75290;BME280;63883;48.996;20.804;2023-04-05T10:56:47;96704.59;;;11.56;29.98
75290;BME280;63883;48.996;20.804;2023-04-05T10:59:13;96695.34;;;10.92;28.68
75290;BME280;63883;48.996;20.804;2023-04-05T11:01:40;96691.44;;;10.45;28.94
75290;BME280;63883;48.996;20.804;2023-04-05T11:04:11;96710.56;;;10.63;28.57
75290;BME280;63883;48.996;20.804;2023-04-05T11:06:37;96694.78;;;10.11;27.09
75290;BME280;63883;48.996;20.804;2023-04-05T11:09:11;96697.03;;;10.25;28.24
75290;BME280;63883;48.996;20.804;2023-04-05T11:11:44;96691.06;;;9.89;29.39
75290;BME280;63883;48.996;20.804;2023-04-05T11:16:53;96708.22;;;8.53;30.81
75290;BME280;63883;48.996;20.804;2023-04-05T11:22:09;96705.28;;;9.61;29.51
75290;BME280;63883;48.996;20.804;2023-04-05T11:27:30;96692.56;;;11.00;27.47
75290;BME280;63883;48.996;20.804;2023-04-05T11:30:01;96702.44;;;11.72;27.41
75290;BME280;63883;48.996;20.804;2023-04-05T11:32:41;96695.84;;;11.05;27.65
75290;BME280;63883;48.996;20.804;2023-04-05T11:35:18;96710.06;;;11.13;27.48
75290;BME280;63883;48.996;20.804;2023-04-05T11:40:38;96687.34;;;12.96;26.05
75290;BME280;63883;48.996;20.804;2023-04-05T11:43:09;96693.59;;;12.63;26.86
75290;BME280;63883;48.996;20.804;2023-04-05T11:45:37;96700.00;;;11.09;28.77
75290;BME280;63883;48.996;20.804;2023-04-05T11:48:08;96700.59;;;8.99;28.62
75290;BME280;63883;48.996;20.804;2023-04-05T11:50:35;96702.38;;;9.37;28.21
75290;BME280;63883;48.996;20.804;2023-04-05T11:53:13;96700.53;;;10.23;28.37
75290;BME280;63883;48.996;20.804;2023-04-05T11:55:47;96690.84;;;11.02;27.30
75290;BME280;63883;48.996;20.804;2023-04-05T11:58:23;96687.66;;;11.82;27.64
75290;BME280;63883;48.996;20.804;2023-04-05T12:01:00;96680.63;;;12.16;26.38
75290;BME280;63883;48.996;20.804;2023-04-05T12:03:28;96690.53;;;13.26;26.24
75290;BME280;63883;48.996;20.804;2023-04-05T12:05:55;96702.03;;;11.27;27.74
75290;BME280;63883;48.996;20.804;2023-04-05T12:08:22;96696.34;;;10.86;26.50
75290;BME280;63883;48.996;20.804;2023-04-05T12:10:57;96700.53;;;12.33;26.74
75290;BME280;63883;48.996;20.804;2023-04-05T12:15:51;96702.75;;;11.60;27.12
75290;BME280;63883;48.996;20.804;2023-04-05T12:18:17;96702.03;;;11.56;26.04
75290;BME280;63883;48.996;20.804;2023-04-05T12:20:44;96700.88;;;11.66;26.41
75290;BME280;63883;48.996;20.804;2023-04-05T12:23:10;96677.22;;;11.60;25.23
75290;BME280;63883;48.996;20.804;2023-04-05T12:25:36;96689.59;;;12.29;25.58
75290;BME280;63883;48.996;20.804;2023-04-05T12:28:06;96689.22;;;13.39;25.33
75290;BME280;63883;48.996;20.804;2023-04-05T12:30:33;96685.03;;;13.13;25.03
75290;BME280;63883;48.996;20.804;2023-04-05T12:33:08;96681.34;;;11.05;27.40
75290;BME280;63883;48.996;20.804;2023-04-05T12:35:34;96686.53;;;11.62;27.64
75290;BME280;63883;48.996;20.804;2023-04-05T12:38:03;96700.31;;;9.55;29.33
75290;BME280;63883;48.996;20.804;2023-04-05T12:40:32;96702.19;;;9.47;30.01
75290;BME280;63883;48.996;20.804;2023-04-05T12:43:02;96705.69;;;11.17;27.93
75290;BME280;63883;48.996;20.804;2023-04-05T12:45:29;96710.22;;;11.09;26.79
75290;BME280;63883;48.996;20.804;2023-04-05T12:48:22;96700.78;;;11.99;26.16
75290;BME280;63883;48.996;20.804;2023-04-05T12:50:51;96703.53;;;12.72;24.90
75290;BME280;63883;48.996;20.804;2023-04-05T12:53:23;96701.63;;;12.77;25.44
75290;BME280;63883;48.996;20.804;2023-04-05T12:55:54;96703.25;;;12.28;24.25
75290;BME280;63883;48.996;20.804;2023-04-05T12:58:34;96688.38;;;12.39;24.41
75290;BME280;63883;48.996;20.804;2023-04-05T13:01:00;96693.69;;;12.84;24.95
75290;BME280;63883;48.996;20.804;2023-04-05T13:03:26;96692.22;;;13.02;24.49
75290;BME280;63883;48.996;20.804;2023-04-05T13:05:52;96686.19;;;12.80;25.04
75290;BME280;63883;48.996;20.804;2023-04-05T13:08:18;96693.31;;;12.45;24.71
75290;BME280;63883;48.996;20.804;2023-04-05T13:10:45;96678.13;;;12.90;24.62
75290;BME280;63883;48.996;20.804;2023-04-05T13:13:15;96686.94;;;14.42;24.25
75290;BME280;63883;48.996;20.804;2023-04-05T13:15:42;96684.81;;;14.10;23.52
75290;BME280;63883;48.996;20.804;2023-04-05T13:18:08;96695.63;;;14.39;22.95
75290;BME280;63883;48.996;20.804;2023-04-05T13:20:34;96696.41;;;13.05;24.39
75290;BME280;63883;48.996;20.804;2023-04-05T13:23:00;96693.88;;;12.80;24.30
75290;BME280;63883;48.996;20.804;2023-04-05T13:25:26;96683.84;;;12.23;23.53
75290;BME280;63883;48.996;20.804;2023-04-05T13:27:52;96686.59;;;13.17;23.63
75290;BME280;63883;48.996;20.804;2023-04-05T13:30:18;96677.94;;;11.35;25.72